KCLK/CLK METAR and TAF weather

Enter ICAO airport designator
Station Type Date Time Source
KCLK METAR 2022/08/12 15:55 UTC NOAA

KCLK 121555Z AUTO 18006KT 10SM CLR 28/18 A3015 RMK AO2


Station Type Date Time Source
KCLK Decoded METAR 2022/08/12 15:55 UTC NOAA

Clinton, Clinton Regional Airport, OK, United States (KCLK) 35-32-17N 098-55-17W
Aug 12, 2022 - 11:55 AM EDT / 2022.08.12 1555 UTC
Wind: from the S (180 degrees) at 7 MPH (6 KT):0
Visibility: 10 mile(s):0
Sky conditions: clear
Temperature: 82 F (28 C)
Dew Point: 64 F (18 C)
Relative Humidity: 54%
Pressure (altimeter): 30.15 in. Hg (1020 hPa)
ob: KCLK 121555Z AUTO 18006KT 10SM CLR 28/18 A3015 RMK AO2
cycle: 16

Station Type Date Time Source
KCLK TAF UTC NOAA

Error!

Example: see airport list